createdAt,value
2018-03-24T00:00:48.363Z,1001.87
2018-03-24T00:01:48.337Z,1001.87
2018-03-24T00:02:48.319Z,1001.83
2018-03-24T00:03:48.307Z,1001.84
2018-03-24T00:04:48.277Z,1001.77
2018-03-24T00:05:48.253Z,1001.79
2018-03-24T00:06:48.239Z,1001.79
2018-03-24T00:07:48.213Z,1001.75
2018-03-24T00:08:48.191Z,1001.76
2018-03-24T00:09:48.168Z,1001.77
2018-03-24T00:10:48.145Z,1001.75
2018-03-24T00:11:48.135Z,1001.77
2018-03-24T00:12:48.107Z,1001.74
2018-03-24T00:13:48.100Z,1001.75
2018-03-24T00:14:48.059Z,1001.76
2018-03-24T00:15:48.041Z,1001.77
2018-03-24T00:16:48.022Z,1001.76
2018-03-24T00:17:48.001Z,1001.76
2018-03-24T00:18:47.978Z,1001.74
2018-03-24T00:19:47.958Z,1001.75
2018-03-24T00:20:47.938Z,1001.80
2018-03-24T00:21:47.914Z,1001.80
2018-03-24T00:22:47.893Z,1001.78
2018-03-24T00:23:47.874Z,1001.76
2018-03-24T00:24:47.850Z,1001.77
2018-03-24T00:25:47.830Z,1001.77
2018-03-24T00:26:47.820Z,1001.72
2018-03-24T00:27:47.787Z,1001.74
2018-03-24T00:28:47.771Z,1001.77
2018-03-24T00:29:47.744Z,1001.71
2018-03-24T00:30:47.733Z,1001.76
2018-03-24T00:31:47.709Z,1001.76
2018-03-24T00:32:47.686Z,1001.75
2018-03-24T00:33:47.660Z,1001.81
2018-03-24T00:34:47.636Z,1001.77
2018-03-24T00:35:47.612Z,1001.80
2018-03-24T00:36:47.594Z,1001.75
2018-03-24T00:37:47.572Z,1001.78
2018-03-24T00:38:47.552Z,1001.76
2018-03-24T00:39:47.533Z,1001.78
2018-03-24T00:40:47.514Z,1001.82
2018-03-24T00:41:47.502Z,1001.77
2018-03-24T00:42:47.472Z,1001.79
2018-03-24T00:43:47.449Z,1001.75
2018-03-24T00:44:47.425Z,1001.78
2018-03-24T00:45:47.410Z,1001.71
2018-03-24T00:46:47.383Z,1001.67
2018-03-24T00:47:47.360Z,1001.69
2018-03-24T00:48:47.344Z,1001.67
2018-03-24T00:49:47.320Z,1001.66
2018-03-24T00:50:47.297Z,1001.66
2018-03-24T00:51:47.275Z,1001.66
2018-03-24T00:52:47.254Z,1001.68
2018-03-24T00:53:47.232Z,1001.65
2018-03-24T00:54:47.214Z,1001.64
2018-03-24T00:55:47.190Z,1001.63
2018-03-24T00:56:47.170Z,1001.63
2018-03-24T00:57:47.148Z,1001.64
2018-03-24T00:58:47.131Z,1001.64
2018-03-24T00:59:47.104Z,1001.62
2018-03-24T01:00:47.086Z,1001.65
2018-03-24T01:01:47.064Z,1001.65
2018-03-24T01:02:47.040Z,1001.61
2018-03-24T01:03:47.018Z,1001.67
2018-03-24T01:04:47.003Z,1001.64
2018-03-24T01:05:46.978Z,1001.66
2018-03-24T01:06:46.964Z,1001.65
2018-03-24T01:07:46.935Z,1001.65
2018-03-24T01:08:46.915Z,1001.60
2018-03-24T01:09:46.891Z,1001.57
2018-03-24T01:10:46.873Z,1001.58
2018-03-24T01:11:46.854Z,1001.58
2018-03-24T01:12:46.828Z,1001.60
2018-03-24T01:13:46.817Z,1001.61
2018-03-24T01:14:46.789Z,1001.57
2018-03-24T01:15:46.763Z,1001.59
2018-03-24T01:16:46.749Z,1001.53
2018-03-24T01:17:46.724Z,1001.54
2018-03-24T01:18:46.705Z,1001.55
2018-03-24T01:19:46.684Z,1001.50
2018-03-24T01:20:46.664Z,1001.46
2018-03-24T01:21:46.638Z,1001.44
2018-03-24T01:22:46.619Z,1001.44
2018-03-24T01:23:46.599Z,1001.45
2018-03-24T01:24:46.573Z,1001.47
2018-03-24T01:25:46.554Z,1001.45
2018-03-24T01:26:46.534Z,1001.49
2018-03-24T01:27:46.510Z,1001.48
2018-03-24T01:28:46.494Z,1001.48
2018-03-24T01:29:46.466Z,1001.44
2018-03-24T01:30:46.503Z,1001.41
2018-03-24T01:31:46.424Z,1001.42
2018-03-24T01:32:46.407Z,1001.40
2018-03-24T01:33:46.382Z,1001.38
2018-03-24T01:34:46.415Z,1001.41
2018-03-24T01:35:46.341Z,1001.38
2018-03-24T01:36:46.370Z,1001.36
2018-03-24T01:37:46.304Z,1001.36
2018-03-24T01:38:46.275Z,1001.32
2018-03-24T01:39:46.256Z,1001.32
2018-03-24T01:40:46.235Z,1001.31
2018-03-24T01:41:46.211Z,1001.32
2018-03-24T01:42:46.193Z,1001.30
2018-03-24T01:43:46.171Z,1001.30
2018-03-24T01:44:46.256Z,1001.30
2018-03-24T01:45:46.132Z,1001.34
2018-03-24T01:46:46.110Z,1001.28
2018-03-24T01:47:46.093Z,1001.28
2018-03-24T01:48:46.066Z,1001.27
2018-03-24T01:49:46.047Z,1001.27
2018-03-24T01:50:46.021Z,1001.26
2018-03-24T01:51:46.004Z,1001.28
2018-03-24T01:52:46.131Z,1001.29
2018-03-24T01:53:45.957Z,1001.25
2018-03-24T01:54:45.984Z,1001.28
2018-03-24T01:55:45.914Z,1001.25
2018-03-24T01:56:45.895Z,1001.31
2018-03-24T01:57:45.870Z,1001.30
2018-03-24T01:58:45.912Z,1001.28
2018-03-24T01:59:45.830Z,1001.27
2018-03-24T02:00:45.908Z,1001.25
2018-03-24T02:01:45.789Z,1001.25
2018-03-24T02:02:45.766Z,1001.23
2018-03-24T02:03:45.742Z,1001.18
2018-03-24T02:04:45.880Z,1001.23
2018-03-24T02:05:45.704Z,1001.19
2018-03-24T02:06:45.808Z,1001.22
2018-03-24T02:07:45.662Z,1001.20
2018-03-24T02:08:45.686Z,1001.22
2018-03-24T02:09:45.616Z,1001.22
2018-03-24T02:10:45.794Z,1001.22
2018-03-24T02:11:45.573Z,1001.24
2018-03-24T02:12:45.554Z,1001.22
2018-03-24T02:13:45.533Z,1001.24
2018-03-24T02:14:45.513Z,1001.26
2018-03-24T02:15:45.490Z,1001.24
2018-03-24T02:16:45.525Z,1001.22
2018-03-24T02:17:45.453Z,1001.25
2018-03-24T02:18:45.474Z,1001.22
2018-03-24T02:19:45.404Z,1001.24
2018-03-24T02:20:45.383Z,1001.23
2018-03-24T02:21:45.364Z,1001.22
2018-03-24T02:22:45.340Z,1001.17
2018-03-24T02:23:45.320Z,1001.17
2018-03-24T02:24:45.300Z,1001.19
2018-03-24T02:25:45.275Z,1001.15
2018-03-24T02:26:45.256Z,1001.15
2018-03-24T02:27:45.231Z,1001.14
2018-03-24T02:28:45.211Z,1001.14
2018-03-24T02:29:45.193Z,1001.13
2018-03-24T02:30:45.171Z,1001.08
2018-03-24T02:31:45.157Z,1001.07
2018-03-24T02:32:45.131Z,1001.09
2018-03-24T02:33:45.109Z,1001.09
2018-03-24T02:34:45.084Z,1001.13
2018-03-24T02:35:45.070Z,1001.11
2018-03-24T02:36:45.044Z,1001.08
2018-03-24T02:37:45.026Z,1001.11
2018-03-24T02:38:45.005Z,1001.12
2018-03-24T02:39:44.980Z,1001.11
2018-03-24T02:40:44.959Z,1001.11
2018-03-24T02:41:44.939Z,1001.08
2018-03-24T02:42:44.914Z,1001.09
2018-03-24T02:43:44.896Z,1001.10
2018-03-24T02:44:44.872Z,1001.09
2018-03-24T02:45:44.850Z,1001.08
2018-03-24T02:46:44.832Z,1001.07
2018-03-24T02:47:44.810Z,1001.02
2018-03-24T02:48:44.792Z,1001.00
2018-03-24T02:49:44.766Z,1000.99
2018-03-24T02:50:44.746Z,1000.98
2018-03-24T02:51:44.727Z,1001.01
2018-03-24T02:52:44.702Z,1001.00
2018-03-24T02:53:44.690Z,1001.02
2018-03-24T02:54:44.661Z,1000.99
2018-03-24T02:55:44.640Z,1000.98
2018-03-24T02:56:44.623Z,1001.03
2018-03-24T02:57:44.593Z,1000.99
2018-03-24T02:58:44.574Z,1001.01
2018-03-24T02:59:44.555Z,1001.00
2018-03-24T03:00:44.532Z,1001.00
2018-03-24T03:01:44.509Z,1001.01
2018-03-24T03:02:44.490Z,1001.00
2018-03-24T03:03:44.467Z,1000.99
2018-03-24T03:04:44.452Z,1000.99
2018-03-24T03:05:44.424Z,1001.00
2018-03-24T03:06:44.408Z,1000.97
2018-03-24T03:07:44.382Z,1001.00
2018-03-24T03:08:44.365Z,1000.99
2018-03-24T03:09:44.342Z,1001.00
2018-03-24T03:10:44.323Z,1001.00
2018-03-24T03:11:44.298Z,1001.04
2018-03-24T03:12:44.276Z,1000.97
2018-03-24T03:13:44.257Z,1000.99
2018-03-24T03:14:44.254Z,1001.02
2018-03-24T03:15:44.219Z,1000.99
2018-03-24T03:16:44.191Z,1000.99
2018-03-24T03:17:44.175Z,1000.98
2018-03-24T03:18:44.149Z,1000.94
2018-03-24T03:19:44.134Z,1000.96
2018-03-24T03:20:44.111Z,1000.99
2018-03-24T03:21:44.083Z,1000.95
2018-03-24T03:22:44.064Z,1001.02
2018-03-24T03:23:44.049Z,1000.95
2018-03-24T03:24:44.022Z,1000.98
2018-03-24T03:25:44.000Z,1000.99
2018-03-24T03:26:43.975Z,1000.95
2018-03-24T03:27:43.961Z,1000.98
2018-03-24T03:28:43.938Z,1000.99
2018-03-24T03:29:43.928Z,1001.05
2018-03-24T03:30:43.892Z,1001.00
2018-03-24T03:31:43.874Z,1001.00
2018-03-24T03:32:43.850Z,1001.00
2018-03-24T03:33:43.827Z,1000.98
2018-03-24T03:34:43.810Z,1001.04
2018-03-24T03:35:43.794Z,1001.01
2018-03-24T03:36:43.765Z,1001.02
2018-03-24T03:37:43.744Z,1001.04
2018-03-24T03:38:43.722Z,1000.99
2018-03-24T03:39:43.742Z,1001.02
2018-03-24T03:40:43.683Z,1001.05
2018-03-24T03:41:43.658Z,1001.05
2018-03-24T03:42:43.635Z,1001.04
2018-03-24T03:43:43.625Z,1001.06
2018-03-24T03:44:43.593Z,1001.08
2018-03-24T03:45:43.575Z,1001.07
2018-03-24T03:46:43.549Z,1001.04
2018-03-24T03:47:43.534Z,1001.06
2018-03-24T03:48:43.507Z,1001.01
2018-03-24T03:49:43.486Z,1001.03
2018-03-24T03:50:43.464Z,1001.01
2018-03-24T03:51:43.442Z,1001.01
2018-03-24T03:52:43.422Z,1001.01
2018-03-24T03:53:43.404Z,1000.98
2018-03-24T03:54:43.380Z,1001.02
2018-03-24T03:55:43.357Z,1001.05
2018-03-24T03:56:43.340Z,1001.03
2018-03-24T03:57:43.314Z,1001.03
2018-03-24T03:58:43.293Z,1001.05
2018-03-24T03:59:43.271Z,1001.02
2018-03-24T04:00:43.254Z,1001.02
2018-03-24T04:01:43.232Z,1001.03
2018-03-24T04:02:43.208Z,1001.03
2018-03-24T04:03:43.191Z,1000.98
2018-03-24T04:04:43.168Z,1000.99
2018-03-24T04:05:43.147Z,1001.01
2018-03-24T04:06:43.125Z,1001.01
2018-03-24T04:07:43.100Z,1001.01
2018-03-24T04:08:43.078Z,1001.02
2018-03-24T04:09:43.064Z,1001.07
2018-03-24T04:10:43.042Z,1001.09
2018-03-24T04:11:43.015Z,1001.05
2018-03-24T04:12:42.994Z,1001.04
2018-03-24T04:13:42.973Z,1001.04
2018-03-24T04:14:42.956Z,1001.00
2018-03-24T04:15:42.929Z,1001.03
2018-03-24T04:16:42.914Z,1001.01
2018-03-24T04:17:42.888Z,1000.98
2018-03-24T04:18:42.865Z,1000.98
2018-03-24T04:19:42.845Z,1000.99
2018-03-24T04:20:42.823Z,1001.03
2018-03-24T04:21:42.800Z,1000.99
2018-03-24T04:22:42.778Z,1001.00
2018-03-24T04:23:42.756Z,1001.02
2018-03-24T04:24:42.738Z,1001.02
2018-03-24T04:25:42.723Z,1001.03
2018-03-24T04:26:42.693Z,1001.05
2018-03-24T04:27:42.673Z,1001.02
2018-03-24T04:28:42.652Z,1001.04
2018-03-24T04:29:42.627Z,1001.03
2018-03-24T04:30:42.607Z,1001.00
2018-03-24T04:31:42.589Z,1001.02
2018-03-24T04:32:42.566Z,1000.99
2018-03-24T04:33:42.543Z,1001.02
2018-03-24T04:34:42.527Z,1001.01
2018-03-24T04:35:42.501Z,1001.02
2018-03-24T04:36:42.483Z,1001.03
2018-03-24T04:37:42.458Z,1001.03
2018-03-24T04:38:42.438Z,1001.02
2018-03-24T04:39:42.440Z,1001.04
2018-03-24T04:40:42.394Z,1000.99
2018-03-24T04:41:42.373Z,1001.01
2018-03-24T04:42:42.351Z,1001.04
2018-03-24T04:43:42.329Z,1001.00
2018-03-24T04:44:42.308Z,1001.04
2018-03-24T04:45:42.392Z,1001.01
2018-03-24T04:46:42.265Z,1001.03
2018-03-24T04:47:42.243Z,1001.06
2018-03-24T04:48:42.223Z,1001.01
2018-03-24T04:49:42.204Z,1001.01
2018-03-24T04:50:42.183Z,1001.06
2018-03-24T04:51:42.256Z,1001.01
2018-03-24T04:52:42.136Z,1001.01
2018-03-24T04:53:42.121Z,1001.05
2018-03-24T04:54:42.092Z,1001.03
2018-03-24T04:55:42.177Z,1001.07
2018-03-24T04:56:42.050Z,1001.09
2018-03-24T04:57:42.033Z,1001.10
2018-03-24T04:58:42.009Z,1001.13
2018-03-24T04:59:41.990Z,1001.12
2018-03-24T05:00:41.965Z,1001.12
2018-03-24T05:01:41.948Z,1001.14
2018-03-24T05:02:41.923Z,1001.16
2018-03-24T05:03:41.989Z,1001.17
2018-03-24T05:04:41.879Z,1001.15
2018-03-24T05:05:41.894Z,1001.16
2018-03-24T05:06:41.836Z,1001.21
2018-03-24T05:07:41.814Z,1001.18
2018-03-24T05:08:41.793Z,1001.20
2018-03-24T05:09:41.784Z,1001.16
2018-03-24T05:10:41.753Z,1001.13
2018-03-24T05:11:41.733Z,1001.15
2018-03-24T05:12:41.709Z,1001.14
2018-03-24T05:13:41.685Z,1001.15
2018-03-24T05:14:41.664Z,1001.18
2018-03-24T05:15:41.643Z,1001.18
2018-03-24T05:16:41.625Z,1001.19
2018-03-24T05:17:41.599Z,1001.22
2018-03-24T05:18:41.576Z,1001.21
2018-03-24T05:19:41.559Z,1001.23
2018-03-24T05:20:41.540Z,1001.26
2018-03-24T05:21:41.516Z,1001.22
2018-03-24T05:22:41.493Z,1001.21
2018-03-24T05:23:41.474Z,1001.21
2018-03-24T05:24:41.451Z,1001.19
2018-03-24T05:25:41.434Z,1001.24
2018-03-24T05:26:41.409Z,1001.18
2018-03-24T05:27:41.394Z,1001.19
2018-03-24T05:28:41.369Z,1001.20
2018-03-24T05:29:41.345Z,1001.16
2018-03-24T05:30:41.324Z,1001.20
2018-03-24T05:31:41.304Z,1001.25
2018-03-24T05:32:41.283Z,1001.25
2018-03-24T05:33:41.317Z,1001.26
2018-03-24T05:34:41.241Z,1001.26
2018-03-24T05:35:41.219Z,1001.25
2018-03-24T05:36:41.200Z,1001.27
2018-03-24T05:37:41.179Z,1001.30
2018-03-24T05:38:41.158Z,1001.26
2018-03-24T05:39:41.138Z,1001.24
2018-03-24T05:40:41.113Z,1001.28
2018-03-24T05:41:41.091Z,1001.29
2018-03-24T05:42:41.069Z,1001.25
2018-03-24T05:43:41.056Z,1001.27
2018-03-24T05:44:41.030Z,1001.23
2018-03-24T05:45:41.005Z,1001.25
2018-03-24T05:46:40.987Z,1001.30
2018-03-24T05:47:40.969Z,1001.26
2018-03-24T05:48:41.005Z,1001.26
2018-03-24T05:49:40.937Z,1001.28
2018-03-24T05:50:40.897Z,1001.26
2018-03-24T05:51:40.879Z,1001.30
2018-03-24T05:52:40.866Z,1001.34
2018-03-24T05:53:40.837Z,1001.31
2018-03-24T05:54:40.819Z,1001.34
2018-03-24T05:55:40.792Z,1001.33
2018-03-24T05:56:40.810Z,1001.36
2018-03-24T05:57:40.753Z,1001.33
2018-03-24T05:58:40.731Z,1001.33
2018-03-24T05:59:40.726Z,1001.38
2018-03-24T06:00:40.689Z,1001.37
2018-03-24T06:01:40.679Z,1001.41
2018-03-24T06:02:40.647Z,1001.45
2018-03-24T06:03:40.631Z,1001.48
2018-03-24T06:04:40.608Z,1001.48
2018-03-24T06:05:40.584Z,1001.51
2018-03-24T06:06:40.563Z,1001.48
2018-03-24T06:07:40.544Z,1001.50
2018-03-24T06:08:40.522Z,1001.51
2018-03-24T06:09:40.503Z,1001.49
2018-03-24T06:10:40.482Z,1001.52
2018-03-24T06:11:40.458Z,1001.48
2018-03-24T06:12:40.444Z,1001.51
2018-03-24T06:13:40.413Z,1001.58
2018-03-24T06:14:40.393Z,1001.59
2018-03-24T06:15:40.373Z,1001.56
2018-03-24T06:16:40.352Z,1001.59
2018-03-24T06:17:40.330Z,1001.60
2018-03-24T06:18:40.357Z,1001.63
2018-03-24T06:19:40.290Z,1001.60
2018-03-24T06:20:40.276Z,1001.61
2018-03-24T06:21:40.263Z,1001.62
2018-03-24T06:22:40.227Z,1001.67
2018-03-24T06:23:40.204Z,1001.67
2018-03-24T06:24:40.353Z,1001.64
2018-03-24T06:25:40.166Z,1001.67
2018-03-24T06:26:40.148Z,1001.67
2018-03-24T06:27:40.124Z,1001.72
2018-03-24T06:28:40.114Z,1001.71
2018-03-24T06:29:40.085Z,1001.68
2018-03-24T06:30:40.107Z,1001.73
2018-03-24T06:31:40.045Z,1001.69
2018-03-24T06:32:40.025Z,1001.77
2018-03-24T06:33:39.994Z,1001.74
2018-03-24T06:34:39.981Z,1001.76
2018-03-24T06:35:39.954Z,1001.75
2018-03-24T06:36:39.933Z,1001.77
2018-03-24T06:37:39.913Z,1001.75
2018-03-24T06:38:39.894Z,1001.75
2018-03-24T06:39:39.872Z,1001.73
2018-03-24T06:40:39.903Z,1001.78
2018-03-24T06:41:39.830Z,1001.76
2018-03-24T06:42:39.911Z,1001.76
2018-03-24T06:43:39.791Z,1001.77
2018-03-24T06:44:39.767Z,1001.80
2018-03-24T06:45:39.754Z,1001.82
2018-03-24T06:46:39.772Z,1001.81
2018-03-24T06:47:39.702Z,1001.79
2018-03-24T06:48:39.718Z,1001.79
2018-03-24T06:49:39.664Z,1001.78
2018-03-24T06:50:39.694Z,1001.81
2018-03-24T06:51:39.624Z,1001.83
2018-03-24T06:52:39.650Z,1001.85
2018-03-24T06:53:39.582Z,1001.81
2018-03-24T06:54:39.562Z,1001.84
2018-03-24T06:55:39.538Z,1001.83
2018-03-24T06:56:39.522Z,1001.85
2018-03-24T06:57:39.497Z,1001.88
2018-03-24T06:58:39.476Z,1001.87
2018-03-24T06:59:39.452Z,1001.88
2018-03-24T07:00:39.433Z,1001.86
2018-03-24T07:01:39.411Z,1001.91
2018-03-24T07:02:39.389Z,1001.92
2018-03-24T07:03:39.371Z,1001.88
2018-03-24T07:04:39.349Z,1001.88
2018-03-24T07:05:39.329Z,1001.85
2018-03-24T07:06:39.316Z,1001.86
2018-03-24T07:07:39.302Z,1001.88
2018-03-24T07:08:39.270Z,1001.88
2018-03-24T07:09:39.244Z,1001.90
2018-03-24T07:10:39.227Z,1001.89
2018-03-24T07:11:39.204Z,1001.90
2018-03-24T07:12:39.186Z,1001.89
2018-03-24T07:13:39.164Z,1001.90
2018-03-24T07:14:39.155Z,1001.89
2018-03-24T07:15:39.132Z,1001.89
2018-03-24T07:16:39.097Z,1001.90
2018-03-24T07:17:39.081Z,1001.92
2018-03-24T07:18:39.073Z,1001.90
2018-03-24T07:19:39.037Z,1001.91
2018-03-24T07:20:39.019Z,1001.87
2018-03-24T07:21:39.001Z,1001.89
2018-03-24T07:22:38.975Z,1001.88
2018-03-24T07:23:38.959Z,1001.93
2018-03-24T07:24:38.938Z,1001.91
2018-03-24T07:25:38.923Z,1001.92
2018-03-24T07:26:38.894Z,1001.96
2018-03-24T07:27:38.880Z,1002.00
2018-03-24T07:28:38.855Z,1001.96
2018-03-24T07:29:38.833Z,1002.01
2018-03-24T07:30:38.813Z,1002.02
2018-03-24T07:31:38.789Z,1002.02
2018-03-24T07:32:38.775Z,1002.05
2018-03-24T07:33:38.750Z,1002.08
2018-03-24T07:34:38.729Z,1002.05
2018-03-24T07:35:38.722Z,1002.06
2018-03-24T07:36:38.687Z,1002.11
2018-03-24T07:37:38.664Z,1002.10
2018-03-24T07:38:38.642Z,1002.12
2018-03-24T07:39:38.624Z,1002.11
2018-03-24T07:40:38.610Z,1002.11
2018-03-24T07:41:38.581Z,1002.12
2018-03-24T07:42:38.563Z,1002.15
2018-03-24T07:43:38.542Z,1002.12
2018-03-24T07:44:38.524Z,1002.15
2018-03-24T07:45:38.500Z,1002.15
2018-03-24T07:46:38.481Z,1002.13
2018-03-24T07:47:38.483Z,1002.10
2018-03-24T07:48:38.444Z,1002.12
2018-03-24T07:49:38.418Z,1002.16
2018-03-24T07:50:38.450Z,1002.17
2018-03-24T07:51:38.377Z,1002.20
2018-03-24T07:52:38.360Z,1002.20
2018-03-24T07:53:38.348Z,1002.15
2018-03-24T07:54:38.397Z,1002.20
2018-03-24T07:55:38.298Z,1002.20
2018-03-24T07:56:38.347Z,1002.16
2018-03-24T07:57:38.255Z,1002.20
2018-03-24T07:58:38.285Z,1002.19
2018-03-24T07:59:38.221Z,1002.23
2018-03-24T08:00:38.197Z,1002.24
2018-03-24T08:01:38.187Z,1002.24
2018-03-24T08:02:38.153Z,1002.23
2018-03-24T08:03:38.185Z,1002.26
2018-03-24T08:04:38.111Z,1002.26
2018-03-24T08:05:38.093Z,1002.30
2018-03-24T08:06:38.196Z,1002.26
2018-03-24T08:07:38.057Z,1002.30
2018-03-24T08:08:38.029Z,1002.34
2018-03-24T08:09:38.055Z,1002.31
2018-03-24T08:10:37.991Z,1002.31
2018-03-24T08:11:37.972Z,1002.34
2018-03-24T08:12:37.958Z,1002.30
2018-03-24T08:13:37.930Z,1002.34
2018-03-24T08:14:37.919Z,1002.40
2018-03-24T08:15:37.888Z,1002.37
2018-03-24T08:16:37.874Z,1002.35
2018-03-24T08:17:37.859Z,1002.35
2018-03-24T08:18:37.831Z,1002.39
2018-03-24T08:19:37.811Z,1002.39
2018-03-24T08:20:37.793Z,1002.40
2018-03-24T08:21:37.768Z,1002.42
2018-03-24T08:22:37.750Z,1002.43
2018-03-24T08:23:37.733Z,1002.43
2018-03-24T08:24:37.707Z,1002.44
2018-03-24T08:25:37.686Z,1002.39
2018-03-24T08:26:37.670Z,1002.48
2018-03-24T08:27:37.650Z,1002.43
2018-03-24T08:28:37.633Z,1002.44
2018-03-24T08:29:37.608Z,1002.42
2018-03-24T08:30:37.591Z,1002.48
2018-03-24T08:31:37.573Z,1002.51
2018-03-24T08:32:37.552Z,1002.50
2018-03-24T08:33:37.533Z,1002.49
2018-03-24T08:34:37.508Z,1002.50
2018-03-24T08:35:37.540Z,1002.56
2018-03-24T08:36:37.466Z,1002.54
2018-03-24T08:37:37.451Z,1002.55
2018-03-24T08:38:37.430Z,1002.50
2018-03-24T08:39:37.410Z,1002.53
2018-03-24T08:40:37.390Z,1002.54
2018-03-24T08:41:37.368Z,1002.51
2018-03-24T08:42:37.353Z,1002.53
2018-03-24T08:43:37.327Z,1002.49
2018-03-24T08:44:37.308Z,1002.52
2018-03-24T08:45:37.288Z,1002.54
2018-03-24T08:46:37.272Z,1002.54
2018-03-24T08:47:37.247Z,1002.54
2018-03-24T08:48:37.232Z,1002.55
2018-03-24T08:49:37.209Z,1002.54
2018-03-24T08:50:37.188Z,1002.52
2018-03-24T08:51:37.170Z,1002.55
2018-03-24T08:52:37.146Z,1002.59
2018-03-24T08:53:37.129Z,1002.54
2018-03-24T08:54:37.106Z,1002.56
2018-03-24T08:55:37.089Z,1002.61
2018-03-24T08:56:37.105Z,1002.64
2018-03-24T08:57:37.050Z,1002.57
2018-03-24T08:58:37.043Z,1002.58
2018-03-24T08:59:37.011Z,1002.56
2018-03-24T09:00:36.995Z,1002.57
2018-03-24T09:01:36.969Z,1002.59
2018-03-24T09:02:36.954Z,1002.59
2018-03-24T09:03:36.933Z,1002.61
2018-03-24T09:04:36.916Z,1002.56
2018-03-24T09:05:36.893Z,1002.58
2018-03-24T09:06:36.874Z,1002.59
2018-03-24T09:07:36.852Z,1002.61
2018-03-24T09:08:36.886Z,1002.61
2018-03-24T09:09:36.815Z,1002.58
2018-03-24T09:10:36.794Z,1002.64
2018-03-24T09:11:36.775Z,1002.60
2018-03-24T09:12:36.754Z,1002.64
2018-03-24T09:13:36.733Z,1002.58
2018-03-24T09:14:36.712Z,1002.63
2018-03-24T09:15:36.694Z,1002.65
2018-03-24T09:16:36.680Z,1002.65
2018-03-24T09:17:36.665Z,1002.65
2018-03-24T09:18:36.636Z,1002.62
2018-03-24T09:19:36.615Z,1002.66
2018-03-24T09:20:36.603Z,1002.66
2018-03-24T09:21:36.575Z,1002.64
2018-03-24T09:22:36.561Z,1002.63
2018-03-24T09:23:36.541Z,1002.69
2018-03-24T09:24:36.528Z,1002.64
2018-03-24T09:25:36.500Z,1002.68
2018-03-24T09:26:36.481Z,1002.66
2018-03-24T09:27:36.460Z,1002.69
2018-03-24T09:28:36.440Z,1002.66
2018-03-24T09:29:36.417Z,1002.67
2018-03-24T09:30:36.399Z,1002.63
2018-03-24T09:31:36.383Z,1002.63
2018-03-24T09:32:36.363Z,1002.64
2018-03-24T09:33:36.392Z,1002.61
2018-03-24T09:34:36.322Z,1002.61
2018-03-24T09:35:36.304Z,1002.65
2018-03-24T09:36:36.325Z,1002.62
2018-03-24T09:37:36.261Z,1002.66
2018-03-24T09:38:36.244Z,1002.66
2018-03-24T09:39:36.222Z,1002.65
2018-03-24T09:40:36.209Z,1002.66
2018-03-24T09:41:36.183Z,1002.68
2018-03-24T09:42:36.163Z,1002.64
2018-03-24T09:43:36.148Z,1002.65
2018-03-24T09:44:36.132Z,1002.63
2018-03-24T09:45:36.107Z,1002.64
2018-03-24T09:46:36.091Z,1002.64
2018-03-24T09:47:36.070Z,1002.59
2018-03-24T09:48:36.062Z,1002.58
2018-03-24T09:49:36.029Z,1002.58
2018-03-24T09:50:36.014Z,1002.61
2018-03-24T09:51:35.998Z,1002.60
2018-03-24T09:52:35.974Z,1002.57
2018-03-24T09:53:35.954Z,1002.57
2018-03-24T09:54:35.933Z,1002.58
2018-03-24T09:55:35.919Z,1002.61
2018-03-24T09:56:35.896Z,1002.57
2018-03-24T09:57:35.878Z,1002.59
2018-03-24T09:58:35.863Z,1002.58
2018-03-24T09:59:35.838Z,1002.62
2018-03-24T10:00:35.824Z,1002.60
2018-03-24T10:01:35.800Z,1002.55
2018-03-24T10:02:35.783Z,1002.56
2018-03-24T10:03:35.764Z,1002.58
2018-03-24T10:04:35.747Z,1002.57
2018-03-24T10:05:35.732Z,1002.49
2018-03-24T10:06:35.709Z,1002.55
2018-03-24T10:07:35.690Z,1002.60
2018-03-24T10:08:35.673Z,1002.55
2018-03-24T10:09:35.648Z,1002.55
2018-03-24T10:10:35.633Z,1002.58
2018-03-24T10:11:35.617Z,1002.57
2018-03-24T10:12:35.600Z,1002.55
2018-03-24T10:13:35.580Z,1002.55
2018-03-24T10:14:35.569Z,1002.55
2018-03-24T10:15:35.543Z,1002.59
2018-03-24T10:16:35.522Z,1002.61
2018-03-24T10:17:35.507Z,1002.58
2018-03-24T10:18:35.490Z,1002.51
2018-03-24T10:19:35.470Z,1002.54
2018-03-24T10:20:35.457Z,1002.52
2018-03-24T10:21:35.542Z,1002.55
2018-03-24T10:22:35.418Z,1002.50
2018-03-24T10:23:35.401Z,1002.49
2018-03-24T10:24:35.387Z,1002.52
2018-03-24T10:25:35.362Z,1002.55
2018-03-24T10:26:35.344Z,1002.52
2018-03-24T10:27:35.328Z,1002.53
2018-03-24T10:28:35.309Z,1002.46
2018-03-24T10:29:35.293Z,1002.51
2018-03-24T10:30:35.276Z,1002.51
2018-03-24T10:31:35.256Z,1002.53
2018-03-24T10:32:35.243Z,1002.53
2018-03-24T10:33:35.222Z,1002.52
2018-03-24T10:34:35.203Z,1002.52
2018-03-24T10:35:35.194Z,1002.46
2018-03-24T10:36:35.174Z,1002.55
2018-03-24T10:37:35.154Z,1002.51
2018-03-24T10:38:35.135Z,1002.52
2018-03-24T10:39:35.121Z,1002.52
2018-03-24T10:40:35.102Z,1002.53
2018-03-24T10:41:35.087Z,1002.54
2018-03-24T10:42:35.073Z,1002.56
2018-03-24T10:43:35.049Z,1002.55
2018-03-24T10:44:35.041Z,1002.54
2018-03-24T10:45:35.018Z,1002.56
2018-03-24T10:46:35.004Z,1002.53
2018-03-24T10:47:34.984Z,1002.51
2018-03-24T10:48:34.968Z,1002.53
2018-03-24T10:49:34.955Z,1002.47
2018-03-24T10:50:34.933Z,1002.52
2018-03-24T10:51:34.921Z,1002.49
2018-03-24T10:52:34.904Z,1002.46
2018-03-24T10:53:34.891Z,1002.47
2018-03-24T10:54:34.865Z,1002.41
2018-03-24T10:55:34.850Z,1002.41
2018-03-24T10:56:34.835Z,1002.37
2018-03-24T10:57:34.816Z,1002.32
2018-03-24T10:58:34.801Z,1002.41
2018-03-24T10:59:34.784Z,1002.40
2018-03-24T11:00:34.773Z,1002.41
2018-03-24T11:01:34.753Z,1002.34
2018-03-24T11:02:34.734Z,1002.37
2018-03-24T11:03:34.724Z,1002.36
2018-03-24T11:04:34.700Z,1002.38
2018-03-24T11:05:34.684Z,1002.36
2018-03-24T11:06:34.666Z,1002.36
2018-03-24T11:07:34.650Z,1002.39
2018-03-24T11:08:34.633Z,1002.39
2018-03-24T11:09:34.624Z,1002.40
2018-03-24T11:10:34.605Z,1002.42
2018-03-24T11:11:34.580Z,1002.38
2018-03-24T11:12:34.571Z,1002.40
2018-03-24T11:13:34.552Z,1002.43
2018-03-24T11:14:34.533Z,1002.40
2018-03-24T11:15:34.513Z,1002.41
2018-03-24T11:16:34.496Z,1002.39
2018-03-24T11:17:34.479Z,1002.39
2018-03-24T11:18:34.472Z,1002.38
2018-03-24T11:19:34.450Z,1002.40
2018-03-24T11:20:34.432Z,1002.35
2018-03-24T11:21:34.416Z,1002.41
2018-03-24T11:22:34.392Z,1002.42
2018-03-24T11:23:34.377Z,1002.43
2018-03-24T11:24:34.360Z,1002.36
2018-03-24T11:25:34.338Z,1002.39
2018-03-24T11:26:34.345Z,1002.42
2018-03-24T11:27:34.302Z,1002.39
2018-03-24T11:28:34.289Z,1002.39
2018-03-24T11:29:34.270Z,1002.34
2018-03-24T11:30:34.255Z,1002.29
2018-03-24T11:31:34.240Z,1002.29
2018-03-24T11:32:34.225Z,1002.30
2018-03-24T11:33:34.212Z,1002.30
2018-03-24T11:34:34.186Z,1002.32
2018-03-24T11:35:34.164Z,1002.33
2018-03-24T11:36:34.148Z,1002.30
2018-03-24T11:37:34.132Z,1002.33
2018-03-24T11:38:34.114Z,1002.33
2018-03-24T11:39:34.105Z,1002.32
2018-03-24T11:40:34.081Z,1002.36
2018-03-24T11:41:34.068Z,1002.36
2018-03-24T11:42:34.043Z,1002.36
2018-03-24T11:43:34.030Z,1002.37
2018-03-24T11:44:34.019Z,1002.37
2018-03-24T11:45:33.993Z,1002.38
2018-03-24T11:46:33.974Z,1002.37
2018-03-24T11:47:33.961Z,1002.35
2018-03-24T11:48:33.942Z,1002.37
2018-03-24T11:49:33.924Z,1002.46
2018-03-24T11:50:33.903Z,1002.35
2018-03-24T11:51:33.893Z,1002.36
2018-03-24T11:52:33.870Z,1002.36
2018-03-24T11:53:33.854Z,1002.38
2018-03-24T11:54:33.833Z,1002.39
2018-03-24T11:55:33.827Z,1002.37
2018-03-24T11:56:33.799Z,1002.41
2018-03-24T11:57:33.781Z,1002.36
2018-03-24T11:58:33.773Z,1002.36
2018-03-24T11:59:33.751Z,1002.34
2018-03-24T12:00:33.732Z,1002.38
2018-03-24T12:01:33.711Z,1002.32
2018-03-24T12:02:33.702Z,1002.32
2018-03-24T12:03:33.680Z,1002.32
2018-03-24T12:04:33.665Z,1002.29
2018-03-24T12:05:33.645Z,1002.31